createdAt,value
2022-11-28T00:00:08.533Z,65.57
2022-11-28T00:02:46.278Z,65.95
2022-11-28T00:05:13.852Z,65.52
2022-11-28T00:07:41.208Z,65.78
2022-11-28T00:10:09.316Z,65.78
2022-11-28T00:12:39.761Z,65.81
2022-11-28T00:15:17.572Z,65.92
2022-11-28T02:22:22.185Z,65.49
2022-11-28T02:25:12.458Z,65.57
2022-11-28T02:28:35.472Z,66.17
2022-11-28T02:32:08.059Z,66.04
2022-11-28T02:35:04.634Z,66.59
2022-11-28T02:38:13.352Z,66.42
2022-11-28T02:41:37.671Z,66.18
2022-11-28T02:44:33.312Z,66.31
2022-11-28T02:47:15.954Z,66.10
2022-11-28T02:50:12.812Z,66.07
2022-11-28T02:52:49.364Z,66.22
2022-11-28T02:55:17.202Z,66.29
2022-11-28T02:57:52.290Z,66.15
2022-11-28T03:00:39.050Z,65.87
2022-11-28T03:03:46.202Z,66.26
2022-11-28T03:06:38.166Z,66.27
2022-11-28T03:09:26.523Z,65.97
2022-11-28T03:12:45.308Z,65.92
2022-11-28T03:15:14.613Z,65.92
2022-11-28T03:18:03.038Z,65.78
2022-11-28T03:20:46.479Z,65.99
2022-11-28T03:23:44.252Z,65.77
2022-11-28T03:26:36.331Z,65.60
2022-11-28T03:29:31.988Z,65.61
2022-11-28T03:32:05.643Z,65.53
2022-11-28T03:34:41.424Z,65.59
2022-11-28T03:37:22.137Z,65.57
2022-11-28T03:39:55.206Z,65.16
2022-11-28T03:42:30.105Z,65.40
2022-11-28T03:45:04.166Z,65.36
2022-11-28T03:47:38.384Z,65.18
2022-11-28T03:50:08.861Z,65.48
2022-11-28T03:52:44.875Z,65.58
2022-11-28T03:55:28.914Z,65.14
2022-11-28T03:58:07.805Z,65.46
2022-11-28T04:00:49.763Z,65.27
2022-11-28T04:03:42.720Z,65.25
2022-11-28T04:06:28.124Z,64.96
2022-11-28T04:09:11.546Z,65.04
2022-11-28T04:11:57.310Z,65.14
2022-11-28T04:14:37.999Z,64.90
2022-11-28T04:17:33.043Z,64.76
2022-11-28T04:20:16.742Z,65.01
2022-11-28T04:22:55.107Z,64.96
2022-11-28T04:25:23.590Z,64.82
2022-11-28T04:27:59.138Z,64.51
2022-11-28T04:30:26.081Z,64.80
2022-11-28T04:33:01.243Z,64.36
2022-11-28T04:35:33.119Z,64.42
2022-11-28T04:38:02.935Z,64.66
2022-11-28T04:40:35.176Z,64.46
2022-11-28T04:43:14.223Z,64.45
2022-11-28T04:45:50.600Z,64.22
2022-11-28T04:48:18.141Z,64.36
2022-11-28T04:51:27.794Z,64.35
2022-11-28T04:54:11.849Z,64.59
2022-11-28T04:56:53.194Z,64.15
2022-11-28T04:59:24.591Z,64.25
2022-11-28T05:01:51.544Z,64.26
2022-11-28T05:04:19.039Z,64.11
2022-11-28T05:06:46.164Z,64.07
2022-11-28T05:09:13.322Z,64.29
2022-11-28T05:11:40.295Z,64.31
2022-11-28T05:14:07.879Z,64.15
2022-11-28T05:16:35.439Z,64.17
2022-11-28T05:19:02.378Z,64.17
2022-11-28T05:21:29.129Z,64.08
2022-11-28T05:23:55.894Z,63.83
2022-11-28T05:26:22.847Z,63.92
2022-11-28T05:28:51.367Z,63.70
2022-11-28T05:31:21.680Z,63.95
2022-11-28T05:33:48.733Z,63.80
2022-11-28T05:36:17.659Z,63.59
2022-11-28T05:38:44.832Z,63.85
2022-11-28T05:41:24.285Z,63.75
2022-11-28T05:43:51.690Z,63.93
2022-11-28T05:46:19.419Z,63.92
2022-11-28T05:48:46.647Z,64.00
2022-11-28T05:51:13.580Z,63.79
2022-11-28T05:53:40.668Z,63.58
2022-11-28T05:56:09.782Z,63.66
2022-11-28T05:58:37.173Z,63.71
2022-11-28T06:01:33.336Z,63.78
2022-11-28T06:04:01.125Z,63.97
2022-11-28T06:06:33.745Z,63.65
2022-11-28T06:09:00.711Z,63.90
2022-11-28T06:11:30.470Z,63.30
2022-11-28T06:13:57.424Z,63.79
2022-11-28T06:16:27.993Z,63.58
2022-11-28T06:18:57.540Z,63.94
2022-11-28T06:21:25.259Z,63.59
2022-11-28T06:23:53.805Z,63.79
2022-11-28T06:26:23.384Z,63.92
2022-11-28T06:28:50.840Z,63.51
2022-11-28T06:31:24.666Z,63.61
2022-11-28T06:33:51.764Z,63.90
2022-11-28T06:36:20.432Z,63.79
2022-11-28T06:38:48.453Z,63.74
2022-11-28T06:41:18.599Z,63.89
2022-11-28T06:43:45.455Z,63.83
2022-11-28T06:46:16.468Z,63.94
2022-11-28T06:48:44.884Z,63.62
2022-11-28T06:51:12.517Z,63.49
2022-11-28T06:53:39.660Z,63.65
2022-11-28T06:56:10.323Z,63.65
2022-11-28T06:58:37.507Z,63.60
2022-11-28T07:01:18.487Z,63.45
2022-11-28T07:03:45.911Z,63.78
2022-11-28T07:06:14.212Z,63.59
2022-11-28T07:08:41.188Z,63.51
2022-11-28T07:11:21.213Z,63.66
2022-11-28T07:13:49.920Z,63.49
2022-11-28T07:16:26.169Z,63.72
2022-11-28T07:18:54.067Z,63.47
2022-11-28T07:21:21.331Z,63.69
2022-11-28T07:23:48.637Z,63.39
2022-11-28T07:26:17.856Z,63.51
2022-11-28T07:28:46.087Z,63.57
2022-11-28T07:31:18.406Z,63.57
2022-11-28T07:33:48.064Z,63.62
2022-11-28T07:36:17.477Z,63.50
2022-11-28T07:38:51.876Z,63.47
2022-11-28T07:41:24.928Z,63.38
2022-11-28T07:43:59.967Z,63.65
2022-11-28T07:46:28.251Z,63.75
2022-11-28T07:48:55.267Z,63.74
2022-11-28T07:51:28.799Z,63.60
2022-11-28T07:53:56.324Z,63.86
2022-11-28T07:56:39.517Z,63.44
2022-11-28T07:59:14.660Z,63.67
2022-11-28T08:01:41.619Z,63.72
2022-11-28T08:04:09.948Z,63.46
2022-11-28T08:06:40.276Z,63.65
2022-11-28T08:09:08.014Z,63.58
2022-11-28T08:11:35.263Z,63.51
2022-11-28T08:14:02.248Z,63.49
2022-11-28T08:16:30.173Z,63.43
2022-11-28T08:18:57.592Z,63.36
2022-11-28T08:21:30.481Z,63.39
2022-11-28T08:24:01.299Z,63.29
2022-11-28T08:26:31.210Z,63.22
2022-11-28T08:28:59.850Z,63.69
2022-11-28T08:31:32.073Z,63.23
2022-11-28T08:34:01.838Z,63.16
2022-11-28T08:36:29.502Z,63.23
2022-11-28T08:39:16.562Z,63.33
2022-11-28T08:41:43.686Z,63.39
2022-11-28T08:44:10.482Z,63.34
2022-11-28T08:46:37.314Z,63.36
2022-11-28T08:49:04.803Z,63.37
2022-11-28T08:51:32.051Z,63.85
2022-11-28T08:54:00.106Z,63.65
2022-11-28T08:56:28.005Z,63.27
2022-11-28T08:58:55.510Z,63.43
2022-11-28T09:01:25.799Z,63.33
2022-11-28T09:03:54.459Z,63.76
2022-11-28T09:06:22.856Z,63.81
2022-11-28T09:08:50.775Z,63.53
2022-11-28T09:11:21.448Z,63.40
2022-11-28T09:13:48.441Z,63.46
2022-11-28T09:16:15.809Z,63.68
2022-11-28T09:18:42.835Z,63.36
2022-11-28T09:21:12.826Z,63.55
2022-11-28T09:23:41.636Z,63.30
2022-11-28T09:26:19.974Z,63.32
2022-11-28T09:28:47.386Z,63.66
2022-11-28T09:31:16.319Z,63.14
2022-11-28T09:33:44.045Z,63.21
2022-11-28T09:36:20.679Z,63.35
2022-11-28T09:38:48.389Z,63.40
2022-11-28T09:41:59.980Z,63.10
2022-11-28T09:44:42.619Z,63.83
2022-11-28T09:47:29.419Z,63.35
2022-11-28T09:50:07.460Z,63.25
2022-11-28T09:52:46.378Z,63.54
2022-11-28T09:55:46.202Z,63.67
2022-11-28T09:58:33.894Z,63.56
2022-11-28T10:01:34.178Z,63.74
2022-11-28T10:04:16.548Z,63.65
2022-11-28T10:07:01.489Z,63.33
2022-11-28T10:09:53.950Z,63.39
2022-11-28T10:13:03.340Z,63.74
2022-11-28T10:16:04.159Z,63.76
2022-11-28T10:19:03.446Z,63.83
2022-11-28T10:21:47.744Z,63.49
2022-11-28T10:24:23.599Z,63.54
2022-11-28T10:26:58.040Z,63.74
2022-11-28T10:29:33.571Z,63.70
2022-11-28T10:32:03.821Z,63.84
2022-11-28T10:34:41.891Z,63.66
2022-11-28T10:37:24.857Z,63.55
2022-11-28T10:39:52.208Z,63.40
2022-11-28T10:42:26.778Z,63.59
2022-11-28T10:45:42.286Z,63.70
2022-11-28T10:51:33.362Z,63.75
2022-11-28T10:54:20.411Z,63.70
2022-11-28T10:57:12.368Z,63.75
2022-11-28T11:00:26.845Z,63.88
2022-11-28T11:03:02.117Z,63.83
2022-11-28T11:05:32.756Z,63.41
2022-11-28T11:08:15.725Z,63.53
2022-11-28T11:10:49.167Z,63.28
2022-11-28T11:13:23.617Z,63.86
2022-11-28T11:16:01.383Z,63.35
